Terminal Aerodrome Forecast
Issued by NWS Charleston, WV

Current Version | Previous Version | Graphics & Text | Print | Product List | Glossary Off
Versions: 1 2 3 4 5 6 7 8 9 10 11 12 13 14 15 16 17 18 19 20 21 22 23 24 25 26 27 28

000
FTUS41 KRLX 031521 AAA
TAFEKN
TAF AMD
KEKN 031521Z 0315/0412 14004KT P6SM BKN080
     FM031800 13005KT 5SM SHRA VCTS OVC030CB
     FM032000 09004KT 5SM SHRA VCTS BKN035CB OVC060
      TEMPO 0320/0322 2SM TSRA OVC025CB
     FM040300 VRB03KT 3SM SHRA BR OVC020
     FM040800 VRB03KT 2SM BR BKN015=

USA.gov is the U.S. government's official web portal to all federal, state and local government web resources and services.